Time;durP1;ratioP1;P1;durP2;ratioP2;P2;SDS_P1;SDS_P2;PMS_P1;PMS_P2;Temp;Humidity;BMP_temperature;BMP_pressure;BME280_temperature;BME280_humidity;BME280_pressure;Samples;Min_cycle;Max_cycle;Signal;HPM_P1;HPM_P2
2021/10/10 05:04:47;;;;;;;4.38;3.38;;;21.10;47.90;;;;;;4215917;23;20460;-64
2021/10/10 05:07:12;;;;;;;4.32;3.10;;;21.10;48.10;;;;;;4973017;28;20435;-65
2021/10/10 05:09:38;;;;;;;4.78;3.20;;;21.10;48.40;;;;;;4955264;28;20479;-64
2021/10/10 05:12:04;;;;;;;5.30;3.20;;;21.10;48.70;;;;;;4973192;28;20475;-64
2021/10/10 05:14:29;;;;;;;5.97;3.63;;;21.10;49.00;;;;;;4973014;28;20399;-65
2021/10/10 05:16:57;;;;;;;7.67;3.53;;;21.10;48.90;;;;;;4972247;28;20403;-65
2021/10/10 05:19:23;;;;;;;6.22;3.10;;;21.10;48.30;;;;;;4972774;28;20434;-64
2021/10/10 05:21:48;;;;;;;3.73;2.27;;;21.10;49.20;;;;;;4972426;28;20436;-64
2021/10/10 05:24:14;;;;;;;10.65;4.18;;;21.10;49.80;;;;;;4955851;28;20910;-67
2021/10/10 05:26:40;;;;;;;5.20;3.20;;;21.20;49.50;;;;;;4972520;28;20503;-66
2021/10/10 05:29:05;;;;;;;7.47;3.70;;;21.20;50.60;;;;;;4972890;28;20428;-66
2021/10/10 05:31:31;;;;;;;6.47;3.50;;;21.20;49.80;;;;;;4972262;28;20483;-67
2021/10/10 05:33:56;;;;;;;5.97;3.55;;;21.20;48.90;;;;;;4972103;28;20482;-66
2021/10/10 05:36:22;;;;;;;7.60;3.80;;;21.10;49.00;;;;;;4972909;28;20849;-66
2021/10/10 05:38:48;;;;;;;9.00;3.85;;;21.10;47.40;;;;;;4972726;28;20403;-66
2021/10/10 05:41:14;;;;;;;6.40;3.67;;;21.10;47.60;;;;;;4972784;28;20760;-67
2021/10/10 05:43:40;;;;;;;7.93;3.77;;;21.10;48.10;;;;;;4972220;28;20403;-65
2021/10/10 05:46:05;;;;;;;8.70;4.00;;;21.00;47.70;;;;;;4972453;28;20420;-65
2021/10/10 05:48:31;;;;;;;8.83;3.87;;;21.00;48.00;;;;;;4972677;28;20409;-65
2021/10/10 05:50:57;;;;;;;7.10;3.70;;;21.00;48.80;;;;;;4972617;28;20443;-65
2021/10/10 05:53:24;;;;;;;7.37;3.57;;;21.00;48.30;;;;;;4972677;28;20503;-65
2021/10/10 05:55:51;;;;;;;8.70;3.77;;;21.00;48.40;;;;;;4972167;28;20404;-65
2021/10/10 05:58:20;;;;;;;6.75;3.55;;;21.00;48.50;;;;;;4972646;28;20396;-65
2021/10/10 06:00:46;;;;;;;7.38;4.15;;;21.00;47.80;;;;;;4972469;28;20400;-65
2021/10/10 06:03:11;;;;;;;9.20;3.70;;;21.00;48.60;;;;;;4972666;28;20405;-65
2021/10/10 06:05:39;;;;;;;7.10;4.00;;;20.90;49.00;;;;;;4972053;28;20420;-65
2021/10/10 06:08:05;;;;;;;8.27;3.88;;;20.90;48.90;;;;;;4972246;28;20410;-67
2021/10/10 06:10:32;;;;;;;6.60;3.63;;;20.90;49.40;;;;;;4972243;28;20471;-65
2021/10/10 06:12:58;;;;;;;8.38;3.53;;;20.90;49.10;;;;;;4972398;28;20410;-65
2021/10/10 06:15:23;;;;;;;6.63;3.80;;;20.90;49.50;;;;;;4972277;28;20392;-65
2021/10/10 06:17:49;;;;;;;5.83;3.60;;;20.90;49.60;;;;;;4971914;28;20399;-65
2021/10/10 06:20:15;;;;;;;7.00;3.58;;;20.90;49.00;;;;;;4972432;28;20396;-65
2021/10/10 06:22:40;;;;;;;6.17;3.50;;;20.90;49.20;;;;;;4955089;28;20407;-65
2021/10/10 06:25:07;;;;;;;6.53;3.90;;;20.80;49.40;;;;;;4972319;28;20792;-65
2021/10/10 06:27:32;;;;;;;5.00;3.70;;;20.80;49.00;;;;;;4972494;28;20803;-65
2021/10/10 06:29:58;;;;;;;8.93;4.22;;;20.80;49.30;;;;;;4975603;28;20482;-65
2021/10/10 06:32:24;;;;;;;6.03;3.60;;;20.80;49.20;;;;;;4976068;28;20767;-65
2021/10/10 06:34:49;;;;;;;6.35;3.70;;;20.80;49.50;;;;;;4976033;28;20388;-65
2021/10/10 06:37:15;;;;;;;6.10;3.53;;;20.80;49.40;;;;;;4976015;28;20393;-65
2021/10/10 06:39:41;;;;;;;5.95;4.03;;;20.80;49.20;;;;;;4975812;28;20403;-65
2021/10/10 06:42:07;;;;;;;8.80;3.50;;;20.80;49.20;;;;;;4975648;28;20400;-65
2021/10/10 06:44:34;;;;;;;7.30;3.75;;;20.80;49.70;;;;;;4958582;28;20503;-65
2021/10/10 06:47:00;;;;;;;5.63;3.65;;;20.80;49.70;;;;;;4975602;28;20452;-65
2021/10/10 06:49:26;;;;;;;8.20;4.25;;;20.80;49.90;;;;;;4975787;28;20380;-65
2021/10/10 06:51:52;;;;;;;5.75;3.55;;;20.80;49.50;;;;;;4975161;28;20455;-65
2021/10/10 06:54:17;;;;;;;5.40;3.50;;;20.70;49.70;;;;;;4975667;28;20392;-65
2021/10/10 06:56:43;;;;;;;5.40;3.67;;;20.70;49.30;;;;;;4975656;28;20404;-65
2021/10/10 06:59:09;;;;;;;6.10;3.22;;;20.70;50.10;;;;;;4975631;28;20428;-65
2021/10/10 07:01:34;;;;;;;6.83;3.47;;;20.70;50.20;;;;;;4974086;28;20404;-66
2021/10/10 07:04:00;;;;;;;7.45;3.88;;;20.80;51.40;;;;;;4955560;28;20418;-65
2021/10/10 07:06:26;;;;;;;7.25;3.67;;;20.80;50.70;;;;;;4938758;28;20485;-66
2021/10/10 07:08:52;;;;;;;6.83;3.77;;;20.90;51.20;;;;;;4942068;28;20449;-67
2021/10/10 07:11:19;;;;;;;7.10;3.85;;;20.90;51.90;;;;;;4955571;28;20409;-66
2021/10/10 07:13:44;;;;;;;6.75;4.15;;;20.90;50.90;;;;;;4955664;29;20394;-66
2021/10/10 07:16:10;;;;;;;6.67;3.57;;;20.90;50.80;;;;;;4955840;29;20404;-67
2021/10/10 07:18:47;;;;;;;9.23;3.65;;;20.90;49.90;;;;;;4938093;29;20440;-65
2021/10/10 07:26:37;;;;;;;8.05;4.15;;;21.00;50.40;;;;;;4974914;28;20487;-64
2021/10/10 07:29:03;;;;;;;7.57;3.83;;;21.00;50.60;;;;;;4988772;28;20489;-64
2021/10/10 07:31:29;;;;;;;8.68;3.88;;;21.00;51.50;;;;;;4994509;28;20398;-67
2021/10/10 07:33:55;;;;;;;6.88;3.90;;;21.00;51.00;;;;;;4985115;28;20481;-64
2021/10/10 07:36:22;;;;;;;9.80;4.63;;;21.00;51.00;;;;;;4986146;28;20407;-64
2021/10/10 07:38:48;;;;;;;8.93;4.60;;;20.90;49.90;;;;;;4990202;28;20391;-64
2021/10/10 07:41:14;;;;;;;7.20;4.55;;;20.90;49.40;;;;;;4990528;28;20395;-64
2021/10/10 07:43:42;;;;;;;8.93;4.30;;;20.90;49.00;;;;;;4988344;28;20469;-63
2021/10/10 07:46:22;;;;;;;7.45;4.40;;;20.90;48.90;;;;;;4979955;28;20594;-63
2021/10/10 07:48:48;;;;;;;7.75;4.53;;;20.90;48.70;;;;;;4980244;28;21228;-63
2021/10/10 07:51:16;;;;;;;7.75;4.03;;;20.90;48.70;;;;;;4982919;28;20398;-64
2021/10/10 07:53:42;;;;;;;6.60;4.25;;;20.80;48.60;;;;;;4966425;28;20406;-64
2021/10/10 07:56:08;;;;;;;7.37;4.83;;;20.80;48.60;;;;;;4982361;28;20440;-63
2021/10/10 07:58:33;;;;;;;7.55;4.28;;;20.80;48.70;;;;;;4982973;28;20402;-63
2021/10/10 08:01:01;;;;;;;6.97;4.45;;;20.80;48.90;;;;;;4983883;28;20392;-64
2021/10/10 08:03:27;;;;;;;5.72;4.22;;;20.80;48.50;;;;;;4983152;28;20517;-65
2021/10/10 08:05:53;;;;;;;6.88;4.20;;;20.80;49.80;;;;;;4981180;28;20592;-67
2021/10/10 08:08:19;;;;;;;8.20;4.30;;;20.80;49.30;;;;;;4983145;28;20402;-62
2021/10/10 08:10:45;;;;;;;9.50;4.63;;;20.90;49.30;;;;;;4983137;28;20396;-66
2021/10/10 08:13:11;;;;;;;10.32;4.93;;;20.80;49.00;;;;;;4981503;28;20726;-63
2021/10/10 08:15:37;;;;;;;8.82;4.50;;;20.90;49.40;;;;;;4980956;28;20907;-63
2021/10/10 08:18:03;;;;;;;12.23;4.70;;;20.90;49.90;;;;;;4973803;28;20439;-63
2021/10/10 08:20:28;;;;;;;7.90;4.70;;;21.00;49.60;;;;;;4956824;28;20399;-64
2021/10/10 08:22:56;;;;;;;9.30;4.70;;;21.00;50.10;;;;;;4956454;28;20396;-64
2021/10/10 08:25:22;;;;;;;9.25;4.72;;;20.90;50.10;;;;;;4973840;28;20419;-65
2021/10/10 08:27:48;;;;;;;9.43;4.80;;;20.90;50.20;;;;;;4956005;28;20907;-63
2021/10/10 08:30:16;;;;;;;7.03;4.43;;;20.90;50.30;;;;;;4956371;28;20407;-65
2021/10/10 08:32:45;;;;;;;9.55;4.82;;;20.90;49.90;;;;;;4956535;28;20900;-64
2021/10/10 08:35:12;;;;;;;8.38;4.88;;;20.80;50.00;;;;;;4973171;28;20407;-66
2021/10/10 08:37:38;;;;;;;7.87;4.40;;;20.80;49.60;;;;;;4970352;28;20834;-63
2021/10/10 08:40:05;;;;;;;8.15;4.30;;;20.90;51.10;;;;;;4965899;28;20484;-63
2021/10/10 08:42:35;;;;;;;9.57;4.40;;;20.90;51.10;;;;;;4981677;28;20410;-63
2021/10/10 08:47:32;;;;;;;7.65;4.43;;;21.00;50.90;;;;;;4979296;28;20424;-64
2021/10/10 08:49:59;;;;;;;8.00;4.63;;;21.00;50.60;;;;;;4967961;28;20392;-65
2021/10/10 08:52:25;;;;;;;7.38;4.68;;;21.00;49.40;;;;;;4971664;28;20404;-63
2021/10/10 08:54:51;;;;;;;7.78;4.80;;;20.90;49.60;;;;;;4971957;28;20419;-63
2021/10/10 08:57:17;;;;;;;7.00;4.72;;;20.90;49.60;;;;;;4968430;28;21228;-64
2021/10/10 08:59:47;;;;;;;6.68;4.53;;;20.90;49.50;;;;;;4953651;28;20408;-63
2021/10/10 09:02:30;;;;;;;7.13;4.57;;;20.90;49.10;;;;;;4969899;28;20407;-63
2021/10/10 09:04:56;;;;;;;7.47;4.97;;;20.90;49.80;;;;;;4971821;28;20424;-63
2021/10/10 09:07:22;;;;;;;7.05;4.95;;;20.90;49.90;;;;;;4971872;28;20934;-64
2021/10/10 09:09:47;;;;;;;6.43;4.50;;;20.90;50.00;;;;;;4971722;28;20747;-63
2021/10/10 09:12:14;;;;;;;9.45;5.18;;;20.90;50.20;;;;;;4971659;28;20965;-63
2021/10/10 09:14:42;;;;;;;7.07;4.93;;;20.90;50.30;;;;;;4971631;28;20392;-63
2021/10/10 09:17:15;;;;;;;8.02;5.20;;;20.90;50.30;;;;;;4971704;28;20403;-64
2021/10/10 09:19:51;;;;;;;7.38;4.80;;;20.90;49.80;;;;;;4971723;28;20475;-63
2021/10/10 09:22:18;;;;;;;7.40;5.00;;;20.90;50.30;;;;;;4971465;28;20487;-63
2021/10/10 09:24:43;;;;;;;9.37;5.27;;;20.90;50.50;;;;;;4971545;28;20424;-63
2021/10/10 09:27:13;;;;;;;8.63;5.03;;;21.00;51.00;;;;;;4971456;28;20516;-63
2021/10/10 09:29:42;;;;;;;10.02;5.20;;;21.00;50.90;;;;;;4971146;28;20424;-64
2021/10/10 09:32:19;;;;;;;11.48;5.25;;;21.00;50.90;;;;;;4970165;28;20407;-64
2021/10/10 09:34:48;;;;;;;10.35;5.97;;;21.10;51.10;;;;;;4970700;28;20431;-63
2021/10/10 09:37:33;;;;;;;10.13;5.53;;;21.10;50.90;;;;;;4971202;28;20459;-63
2021/10/10 09:40:08;;;;;;;8.73;5.28;;;21.20;51.10;;;;;;4970809;28;20425;-63
2021/10/10 09:42:41;;;;;;;9.15;5.53;;;21.20;51.20;;;;;;4971348;28;20407;-63
2021/10/10 09:45:23;;;;;;;9.15;5.38;;;21.30;51.10;;;;;;4971415;28;20404;-63
2021/10/10 09:48:02;;;;;;;10.45;5.82;;;21.20;51.00;;;;;;4953069;28;20424;-64
2021/10/10 09:50:30;;;;;;;9.30;5.10;;;21.30;51.30;;;;;;4954028;28;20396;-63
2021/10/10 09:53:08;;;;;;;7.78;5.03;;;21.20;51.30;;;;;;4971283;28;20404;-64
2021/10/10 09:55:54;;;;;;;7.93;5.22;;;21.20;51.40;;;;;;4971351;28;20459;-63
2021/10/10 09:58:38;;;;;;;7.90;5.10;;;21.20;51.60;;;;;;4971094;28;20407;-64
2021/10/10 10:01:18;;;;;;;7.72;5.15;;;21.20;51.40;;;;;;4970854;28;20498;-64
2021/10/10 10:04:04;;;;;;;8.93;5.13;;;21.20;51.70;;;;;;4974637;28;20397;-64
2021/10/10 10:06:33;;;;;;;8.95;5.00;;;21.20;51.70;;;;;;4957348;28;20799;-63
2021/10/10 10:09:02;;;;;;;11.45;5.80;;;21.20;51.80;;;;;;4975003;28;20471;-64
2021/10/10 10:11:36;;;;;;;12.07;5.95;;;21.20;52.10;;;;;;4974719;28;20400;-65
2021/10/10 10:14:05;;;;;;;13.77;6.60;;;21.30;54.00;;;;;;4974535;28;20896;-64
2021/10/10 10:16:32;;;;;;;17.30;7.28;;;21.40;54.60;;;;;;4957272;28;21159;-63
2021/10/10 10:18:59;;;;;;;18.00;7.80;;;21.40;53.40;;;;;;4974489;28;20407;-63
2021/10/10 10:21:27;;;;;;;17.25;7.15;;;21.50;53.80;;;;;;4974813;28;20876;-64
2021/10/10 10:24:00;;;;;;;18.75;7.38;;;21.40;54.60;;;;;;4974517;28;20467;-64
2021/10/10 10:26:32;;;;;;;18.75;7.72;;;21.60;57.40;;;;;;4980085;28;20522;-66
2021/10/10 10:29:02;;;;;;;23.70;7.68;;;21.70;55.00;;;;;;4987787;28;20420;-67
2021/10/10 10:31:30;;;;;;;15.55;6.78;;;21.80;55.80;;;;;;4974805;28;20908;-64
2021/10/10 10:34:21;;;;;;;15.88;7.15;;;21.90;54.80;;;;;;4974158;28;20443;-63
2021/10/10 10:37:07;;;;;;;11.73;6.57;;;22.00;55.40;;;;;;4974672;28;20431;-66
2021/10/10 10:39:41;;;;;;;13.20;6.50;;;22.00;53.10;;;;;;4974661;28;20835;-65
2021/10/10 10:42:27;;;;;;;15.40;6.32;;;22.10;52.80;;;;;;4973888;28;20392;-63
2021/10/10 10:44:54;;;;;;;14.52;6.28;;;22.20;52.70;;;;;;4967040;28;20412;-64
2021/10/10 10:47:35;;;;;;;13.05;6.00;;;22.30;52.10;;;;;;4974581;28;20424;-63
2021/10/10 10:50:04;;;;;;;14.82;6.47;;;22.30;51.90;;;;;;4974053;28;20734;-64
2021/10/10 10:52:31;;;;;;;11.45;5.90;;;22.40;51.80;;;;;;4974377;28;20861;-64
2021/10/10 10:55:05;;;;;;;11.63;6.10;;;22.30;51.60;;;;;;4974403;28;20444;-64
2021/10/10 10:57:36;;;;;;;14.57;5.95;;;22.30;52.10;;;;;;4956812;28;20404;-64
2021/10/10 11:00:12;;;;;;;13.13;5.73;;;22.30;51.90;;;;;;4974014;28;20396;-64
2021/10/10 11:02:50;;;;;;;10.90;5.88;;;22.40;52.40;;;;;;4974264;28;20380;-64
2021/10/10 11:05:31;;;;;;;11.63;5.90;;;22.50;52.50;;;;;;4973906;28;20921;-63
2021/10/10 11:07:58;;;;;;;11.27;6.03;;;22.60;54.30;;;;;;4956323;28;20478;-63
2021/10/10 11:10:23;;;;;;;9.95;5.30;;;22.70;53.30;;;;;;4973980;28;20388;-64
2021/10/10 11:13:25;;;;;;;8.70;5.43;;;22.70;52.00;;;;;;4973974;28;20764;-64
2021/10/10 11:16:03;;;;;;;10.57;5.50;;;22.80;51.20;;;;;;4956341;28;20483;-63
2021/10/10 11:18:29;;;;;;;10.93;5.50;;;22.80;51.20;;;;;;4956418;28;20412;-64
2021/10/10 11:20:57;;;;;;;10.02;5.53;;;22.70;51.00;;;;;;4973545;28;20400;-64
2021/10/10 11:23:24;;;;;;;11.68;5.90;;;22.70;50.30;;;;;;4956567;28;20761;-63
2021/10/10 11:25:51;;;;;;;9.95;5.75;;;22.80;50.90;;;;;;4973367;28;20796;-63
2021/10/10 11:28:19;;;;;;;11.05;6.05;;;22.90;50.60;;;;;;4980571;28;20404;-64
2021/10/10 11:30:45;;;;;;;10.07;5.50;;;23.00;50.00;;;;;;4981826;28;20401;-65
2021/10/10 11:33:13;;;;;;;9.27;5.53;;;23.10;49.90;;;;;;4975626;28;20486;-65
2021/10/10 11:35:43;;;;;;;9.57;5.47;;;23.10;49.40;;;;;;4981271;28;20397;-65
2021/10/10 11:38:12;;;;;;;11.00;5.88;;;23.10;50.10;;;;;;4975125;28;20473;-65
2021/10/10 11:40:56;;;;;;;10.00;5.82;;;23.00;50.40;;;;;;4993372;28;20399;-66
2021/10/10 11:43:23;;;;;;;10.32;5.90;;;23.00;50.80;;;;;;4994340;28;20409;-65
2021/10/10 11:45:57;;;;;;;10.33;5.57;;;23.00;50.90;;;;;;4994055;28;20751;-64
2021/10/10 11:48:36;;;;;;;15.07;8.93;;;22.90;49.90;;;;;;4994134;28;20394;-65
2021/10/10 11:51:03;;;;;;;12.53;7.87;;;23.10;51.10;;;;;;4993962;28;20382;-66
2021/10/10 11:53:40;;;;;;;11.43;6.88;;;23.20;50.40;;;;;;4994170;28;20401;-65
2021/10/10 11:56:05;;;;;;;11.70;6.75;;;23.10;50.10;;;;;;4993588;28;20446;-65
2021/10/10 11:58:32;;;;;;;10.53;6.80;;;23.10;50.00;;;;;;4994021;28;20394;-65
2021/10/10 12:01:11;;;;;;;11.38;7.13;;;23.00;49.40;;;;;;4993926;28;20897;-65
2021/10/10 12:03:45;;;;;;;12.35;7.25;;;23.00;49.70;;;;;;4993620;28;20466;-65
2021/10/10 12:06:21;;;;;;;11.07;6.68;;;23.10;49.90;;;;;;4993359;28;20415;-65
2021/10/10 12:08:48;;;;;;;9.02;7.22;;;23.10;49.90;;;;;;4993720;28;20387;-65
2021/10/10 12:11:14;;;;;;;10.27;6.93;;;23.10;49.90;;;;;;4993671;28;20473;-65
2021/10/10 12:13:56;;;;;;;10.07;7.97;;;23.10;50.20;;;;;;4993633;28;20430;-65
2021/10/10 12:16:22;;;;;;;11.20;8.73;;;23.10;50.10;;;;;;4993348;28;20435;-66
2021/10/10 12:18:48;;;;;;;11.18;8.88;;;23.10;51.00;;;;;;4993478;28;20395;-65
2021/10/10 12:21:25;;;;;;;11.38;9.55;;;23.20;50.60;;;;;;4976214;28;20422;-65
2021/10/10 12:24:06;;;;;;;11.20;10.00;;;23.10;50.50;;;;;;4993490;28;20386;-65
2021/10/10 12:26:52;;;;;;;19.70;16.08;;;23.20;51.10;;;;;;4992390;28;20510;-65
2021/10/10 12:29:25;;;;;;;12.57;11.27;;;23.30;50.60;;;;;;4982761;28;20493;-65
2021/10/10 12:31:53;;;;;;;12.18;10.10;;;23.40;50.00;;;;;;4975991;28;21187;-65
2021/10/10 12:34:18;;;;;;;10.98;9.07;;;23.30;49.70;;;;;;4980456;28;20438;-66
2021/10/10 12:36:48;;;;;;;12.53;8.93;;;23.30;49.40;;;;;;4966929;28;20477;-65
2021/10/10 12:39:15;;;;;;;12.68;8.20;;;23.30;49.50;;;;;;4983909;28;20399;-64
2021/10/10 12:41:41;;;;;;;19.27;8.57;;;23.30;49.80;;;;;;4983347;28;20457;-65
2021/10/10 12:44:10;;;;;;;11.25;8.00;;;23.40;50.30;;;;;;4980048;28;20406;-64
2021/10/10 12:46:53;;;;;;;16.50;12.33;;;23.40;49.80;;;;;;4972215;28;20478;-65
2021/10/10 12:49:29;;;;;;;12.40;10.88;;;23.40;50.00;;;;;;4993165;28;20382;-64
2021/10/10 12:51:55;;;;;;;13.60;9.25;;;23.50;49.70;;;;;;4992379;28;20457;-64
2021/10/10 12:54:23;;;;;;;10.93;8.70;;;23.80;49.60;;;;;;4991639;28;20479;-64
2021/10/10 12:57:13;;;;;;;11.43;7.43;;;23.80;49.20;;;;;;4992766;28;20905;-63
2021/10/10 12:59:49;;;;;;;10.38;7.20;;;23.90;49.30;;;;;;4992591;28;20401;-64
2021/10/10 13:02:14;;;;;;;12.00;6.95;;;23.90;49.60;;;;;;4992112;28;20718;-64
2021/10/10 13:04:40;;;;;;;8.73;6.70;;;23.80;50.20;;;;;;4992392;28;20501;-65
2021/10/10 13:07:06;;;;;;;9.45;6.68;;;23.80;50.00;;;;;;4992553;28;20422;-64
2021/10/10 13:09:33;;;;;;;12.65;6.70;;;23.80;50.70;;;;;;4992541;28;20478;-64
2021/10/10 13:12:02;;;;;;;9.75;6.40;;;23.80;51.20;;;;;;4992202;28;20484;-64
2021/10/10 13:14:28;;;;;;;8.77;6.03;;;23.80;51.80;;;;;;4977227;28;20430;-63
2021/10/10 13:16:55;;;;;;;13.35;5.88;;;23.80;52.00;;;;;;4972943;28;20949;-64
2021/10/10 13:19:21;;;;;;;14.60;6.20;;;23.80;52.50;;;;;;4973100;28;20396;-64
2021/10/10 13:21:47;;;;;;;15.60;5.90;;;23.70;52.60;;;;;;4972832;28;20388;-65
2021/10/10 13:24:15;;;;;;;12.95;5.95;;;23.80;52.60;;;;;;4972576;28;20400;-64
2021/10/10 13:26:41;;;;;;;9.60;5.45;;;23.80;52.60;;;;;;4972693;28;20439;-64
2021/10/10 13:29:08;;;;;;;9.57;5.05;;;23.80;52.10;;;;;;4972651;28;20415;-67
2021/10/10 13:31:34;;;;;;;7.28;4.78;;;23.80;52.70;;;;;;4955862;28;20962;-64
2021/10/10 13:34:00;;;;;;;9.23;5.57;;;23.70;51.00;;;;;;4955059;28;20495;-67
2021/10/10 13:36:26;;;;;;;9.57;4.85;;;23.70;51.00;;;;;;4972374;28;20468;-64
2021/10/10 13:38:52;;;;;;;6.80;4.47;;;23.60;50.50;;;;;;4955447;28;20507;-67
2021/10/10 13:41:20;;;;;;;8.60;4.47;;;23.60;50.10;;;;;;4972726;28;20809;-67
2021/10/10 13:43:47;;;;;;;7.40;4.43;;;23.60;49.90;;;;;;4972321;28;20400;-67
2021/10/10 13:46:13;;;;;;;6.22;4.30;;;23.60;49.40;;;;;;4971867;28;20463;-65
2021/10/10 13:48:40;;;;;;;7.10;4.38;;;23.50;49.10;;;;;;4971875;28;20464;-66
2021/10/10 13:51:06;;;;;;;7.72;4.40;;;23.50;49.00;;;;;;4970566;28;20892;-66
2021/10/10 13:53:33;;;;;;;6.57;4.28;;;23.50;49.00;;;;;;4978496;28;20447;-65
2021/10/10 13:55:59;;;;;;;8.98;3.85;;;23.50;48.50;;;;;;4982153;28;20477;-64
2021/10/10 13:58:25;;;;;;;6.38;4.07;;;23.40;48.40;;;;;;4977416;28;20430;-66
2021/10/10 14:00:52;;;;;;;7.33;3.90;;;23.40;48.50;;;;;;4974070;28;20437;-66
2021/10/10 14:03:19;;;;;;;8.85;4.40;;;23.40;47.60;;;;;;4968139;28;20498;-67
2021/10/10 14:05:46;;;;;;;6.68;3.95;;;23.30;48.40;;;;;;4979161;28;20422;-64
2021/10/10 14:08:13;;;;;;;8.10;3.95;;;23.40;48.40;;;;;;4967937;28;20404;-64
2021/10/10 14:10:41;;;;;;;5.78;4.00;;;23.40;48.10;;;;;;4978243;28;20456;-68
2021/10/10 14:13:08;;;;;;;5.57;3.80;;;23.40;48.00;;;;;;4980773;28;20405;-64
2021/10/10 14:15:36;;;;;;;8.38;4.20;;;23.40;48.10;;;;;;4979840;28;20859;-65
2021/10/10 14:18:02;;;;;;;4.43;3.22;;;23.40;48.00;;;;;;4980497;28;20398;-65
2021/10/10 14:20:30;;;;;;;5.57;3.70;;;23.40;47.70;;;;;;4981594;28;20474;-64
2021/10/10 14:22:56;;;;;;;6.20;4.10;;;23.30;47.80;;;;;;4979856;28;20406;-62
2021/10/10 14:25:22;;;;;;;5.38;3.55;;;23.30;47.30;;;;;;4963409;28;20391;-62
2021/10/10 14:27:48;;;;;;;4.97;3.78;;;23.30;46.70;;;;;;4980676;28;20410;-66
2021/10/10 14:30:14;;;;;;;6.95;3.58;;;23.30;46.20;;;;;;4975159;28;20466;-64
2021/10/10 14:32:42;;;;;;;10.70;3.53;;;23.30;46.10;;;;;;4972073;28;20396;-64
2021/10/10 14:35:11;;;;;;;6.77;3.53;;;23.30;47.20;;;;;;4972044;28;20391;-64
2021/10/10 14:37:38;;;;;;;6.22;3.47;;;23.20;47.80;;;;;;4954733;28;20969;-64
2021/10/10 14:40:06;;;;;;;6.20;3.58;;;23.30;47.80;;;;;;4971743;28;20411;-64
2021/10/10 14:42:39;;;;;;;7.43;3.85;;;23.30;47.80;;;;;;4971960;28;20388;-64
2021/10/10 14:45:58;;;;;;;5.85;3.20;;;23.30;47.70;;;;;;4955174;28;20410;-64
2021/10/10 14:48:08;;;;;;;7.20;3.23;;;23.30;47.70;;;;;;4960927;28;20577;-64
2021/10/10 14:50:42;;;;;;;6.75;3.25;;;23.30;47.60;;;;;;4975211;28;20886;-65
2021/10/10 14:53:12;;;;;;;6.90;3.60;;;23.30;47.50;;;;;;4975592;28;20391;-64
2021/10/10 14:55:39;;;;;;;6.15;3.30;;;23.30;47.60;;;;;;4975562;28;20475;-64
2021/10/10 14:58:07;;;;;;;6.90;3.60;;;23.30;47.60;;;;;;4975023;28;20392;-63
2021/10/10 15:00:32;;;;;;;6.25;3.55;;;23.30;47.40;;;;;;4975424;28;20384;-63
2021/10/10 15:02:59;;;;;;;6.38;3.45;;;23.30;47.30;;;;;;4975021;28;20421;-64
2021/10/10 15:05:26;;;;;;;4.90;3.25;;;23.30;47.80;;;;;;4974844;28;20408;-64
2021/10/10 15:07:53;;;;;;;6.57;3.28;;;23.30;47.70;;;;;;4975124;28;20404;-63
2021/10/10 15:10:19;;;;;;;4.88;3.13;;;23.30;47.50;;;;;;4974851;28;20488;-64
2021/10/10 15:12:46;;;;;;;6.22;3.13;;;23.30;47.70;;;;;;4975047;28;20745;-64
2021/10/10 15:15:15;;;;;;;9.82;3.42;;;23.30;48.00;;;;;;4957666;28;20474;-63
2021/10/10 15:17:41;;;;;;;7.60;3.20;;;23.20;47.10;;;;;;4975077;28;20407;-63
2021/10/10 15:20:11;;;;;;;6.68;3.53;;;23.10;47.60;;;;;;4957191;28;20873;-63
2021/10/10 15:22:38;;;;;;;4.35;3.38;;;23.20;48.00;;;;;;4974669;28;20483;-63
2021/10/10 15:25:04;;;;;;;7.68;3.60;;;23.10;47.90;;;;;;4974744;28;20431;-64
2021/10/10 15:27:31;;;;;;;7.10;3.50;;;23.10;48.40;;;;;;4974878;28;20420;-63
2021/10/10 15:29:57;;;;;;;6.72;3.60;;;23.10;48.20;;;;;;4975615;28;20471;-63
2021/10/10 15:32:23;;;;;;;5.90;3.35;;;23.10;48.20;;;;;;4974372;28;20888;-63
2021/10/10 15:34:49;;;;;;;6.75;3.58;;;23.10;47.70;;;;;;4974737;28;20458;-63
2021/10/10 15:37:17;;;;;;;5.70;3.70;;;23.10;47.00;;;;;;4974611;28;20428;-65
2021/10/10 15:39:43;;;;;;;8.60;3.53;;;23.10;46.40;;;;;;4976881;28;20398;-64
2021/10/10 15:42:09;;;;;;;6.20;3.58;;;23.00;46.80;;;;;;4977339;28;20405;-67
2021/10/10 15:44:39;;;;;;;6.53;3.38;;;23.00;47.40;;;;;;4978452;28;20395;-65
2021/10/10 15:47:05;;;;;;;5.32;3.33;;;23.00;47.40;;;;;;4990243;28;20453;-65
2021/10/10 15:49:31;;;;;;;4.35;3.20;;;23.00;47.30;;;;;;4976836;28;20425;-64
2021/10/10 15:51:57;;;;;;;4.95;3.10;;;23.00;47.30;;;;;;4993925;28;20879;-64
2021/10/10 15:54:22;;;;;;;4.40;3.00;;;23.00;47.40;;;;;;4993385;28;20397;-64
2021/10/10 15:56:51;;;;;;;4.95;3.15;;;23.00;47.20;;;;;;4993725;28;20399;-63
2021/10/10 15:59:18;;;;;;;11.23;4.32;;;23.00;46.60;;;;;;4993564;28;20383;-64
2021/10/10 16:01:45;;;;;;;7.22;4.15;;;22.90;46.70;;;;;;4976033;28;20926;-63
2021/10/10 16:04:11;;;;;;;6.88;3.90;;;22.90;46.00;;;;;;4975284;28;20549;-64
2021/10/10 16:06:37;;;;;;;6.03;3.67;;;22.90;45.90;;;;;;4993454;28;20426;-64
2021/10/10 16:09:04;;;;;;;5.53;3.83;;;22.80;45.80;;;;;;4987956;28;20399;-67
2021/10/10 16:11:31;;;;;;;9.07;4.27;;;22.90;46.20;;;;;;4974060;28;20415;-66
2021/10/10 16:13:57;;;;;;;7.55;4.25;;;22.80;46.50;;;;;;4971995;28;20415;-64
2021/10/10 16:16:24;;;;;;;7.85;4.00;;;22.80;46.00;;;;;;4955854;28;20404;-64
2021/10/10 16:18:49;;;;;;;9.45;3.80;;;22.80;46.40;;;;;;4974195;28;20875;-65
2021/10/10 16:21:15;;;;;;;10.85;4.05;;;22.80;46.90;;;;;;4956572;28;20404;-64
2021/10/10 16:23:42;;;;;;;10.23;4.10;;;22.80;47.10;;;;;;4973963;28;20756;-63
2021/10/10 16:26:07;;;;;;;7.75;4.15;;;22.80;47.20;;;;;;4973627;28;20411;-64
2021/10/10 16:28:34;;;;;;;8.50;3.45;;;22.80;47.30;;;;;;4956673;28;20411;-64
2021/10/10 16:31:03;;;;;;;10.23;4.38;;;22.80;47.30;;;;;;4956294;28;20408;-63
2021/10/10 16:33:33;;;;;;;11.65;4.22;;;22.80;47.30;;;;;;4973686;28;20400;-63
2021/10/10 16:36:08;;;;;;;10.52;4.10;;;22.80;48.60;;;;;;4973674;28;20476;-66
2021/10/10 16:38:38;;;;;;;10.15;4.15;;;22.80;48.50;;;;;;4973549;28;20396;-65
2021/10/10 16:41:19;;;;;;;14.20;4.30;;;22.80;48.60;;;;;;4973703;28;20446;-63
2021/10/10 16:43:46;;;;;;;18.30;6.07;;;22.80;49.40;;;;;;4973281;28;20451;-66
2021/10/10 16:46:12;;;;;;;24.25;14.07;;;22.80;50.00;;;;;;4973045;28;20884;-64
2021/10/10 16:48:38;;;;;;;66.68;55.63;;;22.90;50.70;;;;;;4973082;28;20411;-66
2021/10/10 16:51:03;;;;;;;39.53;28.33;;;22.90;51.00;;;;;;4973284;28;20892;-64
2021/10/10 16:53:30;;;;;;;36.93;26.27;;;23.00;51.60;;;;;;4973256;28;20396;-65
2021/10/10 16:55:56;;;;;;;38.38;25.52;;;23.00;50.50;;;;;;4955839;28;20506;-67
2021/10/10 16:58:23;;;;;;;63.28;50.30;;;23.10;51.50;;;;;;4972798;28;20866;-67
2021/10/10 17:00:49;;;;;;;65.72;42.63;;;23.10;50.60;;;;;;4973209;28;20396;-67
2021/10/10 17:03:16;;;;;;;61.78;38.70;;;23.20;51.90;;;;;;4972501;28;20404;-65
2021/10/10 17:05:42;;;;;;;74.90;44.35;;;23.20;52.60;;;;;;4971973;28;20428;-64
2021/10/10 17:08:08;;;;;;;80.03;45.42;;;23.30;52.70;;;;;;4972804;28;20446;-64
2021/10/10 17:10:37;;;;;;;129.07;61.63;;;23.30;55.90;;;;;;4972645;28;20457;-64
2021/10/10 17:13:03;;;;;;;232.20;119.83;;;23.40;57.70;;;;;;4972484;28;20910;-65
2021/10/10 17:15:29;;;;;;;192.90;112.57;;;23.50;59.40;;;;;;4973018;28;20392;-64
2021/10/10 17:17:54;;;;;;;194.18;100.72;;;23.70;57.30;;;;;;4972760;28;20419;-66
2021/10/10 17:20:21;;;;;;;189.23;92.57;;;23.70;57.90;;;;;;4972196;28;20471;-67
2021/10/10 17:22:47;;;;;;;164.90;86.60;;;23.70;58.70;;;;;;4972453;28;20404;-64
2021/10/10 17:25:13;;;;;;;149.70;76.00;;;23.70;57.60;;;;;;4972892;28;20892;-65
2021/10/10 17:27:39;;;;;;;158.00;76.13;;;23.80;57.30;;;;;;4972793;28;20420;-64
2021/10/10 17:30:05;;;;;;;158.63;77.27;;;23.80;57.40;;;;;;4972331;28;20497;-65
2021/10/10 17:32:31;;;;;;;152.77;80.10;;;23.80;56.80;;;;;;4971732;28;20482;-64
2021/10/10 17:34:57;;;;;;;151.43;75.18;;;23.80;57.30;;;;;;4972439;28;20393;-65
2021/10/10 17:37:23;;;;;;;128.50;66.67;;;23.80;56.70;;;;;;4972635;28;20388;-66
2021/10/10 17:39:49;;;;;;;124.97;58.92;;;23.80;57.30;;;;;;4972460;28;20404;-65
2021/10/10 17:42:15;;;;;;;119.57;57.70;;;23.80;57.70;;;;;;4972102;28;20393;-65
2021/10/10 17:44:41;;;;;;;114.25;52.63;;;23.90;55.80;;;;;;4972190;28;20462;-67
2021/10/10 17:47:07;;;;;;;92.40;47.80;;;23.90;58.70;;;;;;4972491;28;20416;-65
2021/10/10 17:49:33;;;;;;;94.10;45.03;;;24.00;58.20;;;;;;4971994;28;20466;-65
2021/10/10 17:51:59;;;;;;;87.18;41.85;;;24.10;57.40;;;;;;4972319;28;20446;-66
2021/10/10 17:54:25;;;;;;;66.37;33.70;;;24.10;56.10;;;;;;4954528;28;20392;-65
2021/10/10 17:56:50;;;;;;;64.22;33.63;;;24.00;55.30;;;;;;4970893;28;20443;-64
2021/10/10 17:59:39;;;;;;;65.30;31.80;;;24.00;54.90;;;;;;4975520;28;20883;-64